sensor_id;sensor_type;location;lat;lon;timestamp;P1;durP1;ratioP1;P2;durP2;ratioP2
39300;SDS011;25019;42.626;23.380;2023-02-28T00:00:17;33.37;;;17.93;;
39300;SDS011;25019;42.626;23.380;2023-02-28T00:02:44;33.07;;;17.23;;
39300;SDS011;25019;42.626;23.380;2023-02-28T00:05:12;31.80;;;17.17;;
39300;SDS011;25019;42.626;23.380;2023-02-28T00:07:39;31.40;;;16.63;;
39300;SDS011;25019;42.626;23.380;2023-02-28T00:10:05;30.00;;;16.93;;
39300;SDS011;25019;42.626;23.380;2023-02-28T00:12:33;29.03;;;16.63;;
39300;SDS011;25019;42.626;23.380;2023-02-28T00:15:00;26.40;;;15.93;;
39300;SDS011;25019;42.626;23.380;2023-02-28T00:17:26;28.67;;;15.37;;
39300;SDS011;25019;42.626;23.380;2023-02-28T00:19:52;27.57;;;16.57;;
39300;SDS011;25019;42.626;23.380;2023-02-28T00:22:19;25.53;;;15.17;;
39300;SDS011;25019;42.626;23.380;2023-02-28T00:24:45;28.60;;;15.83;;
39300;SDS011;25019;42.626;23.380;2023-02-28T00:27:12;31.27;;;16.13;;
39300;SDS011;25019;42.626;23.380;2023-02-28T00:29:38;24.73;;;15.20;;
39300;SDS011;25019;42.626;23.380;2023-02-28T00:32:04;31.27;;;16.70;;
39300;SDS011;25019;42.626;23.380;2023-02-28T00:34:31;30.57;;;16.57;;
39300;SDS011;25019;42.626;23.380;2023-02-28T00:37:06;30.50;;;17.73;;
39300;SDS011;25019;42.626;23.380;2023-02-28T00:39:34;31.87;;;18.43;;
39300;SDS011;25019;42.626;23.380;2023-02-28T00:42:02;28.73;;;17.00;;
39300;SDS011;25019;42.626;23.380;2023-02-28T00:44:28;33.17;;;18.07;;
39300;SDS011;25019;42.626;23.380;2023-02-28T00:46:54;33.57;;;18.33;;
39300;SDS011;25019;42.626;23.380;2023-02-28T00:49:23;33.87;;;17.60;;
39300;SDS011;25019;42.626;23.380;2023-02-28T00:51:49;32.40;;;17.13;;
39300;SDS011;25019;42.626;23.380;2023-02-28T00:54:16;31.67;;;18.87;;
39300;SDS011;25019;42.626;23.380;2023-02-28T00:56:41;36.63;;;20.13;;
39300;SDS011;25019;42.626;23.380;2023-02-28T00:59:07;39.57;;;20.97;;
39300;SDS011;25019;42.626;23.380;2023-02-28T01:01:32;40.13;;;21.30;;
39300;SDS011;25019;42.626;23.380;2023-02-28T01:03:58;35.20;;;21.60;;
39300;SDS011;25019;42.626;23.380;2023-02-28T01:06:24;35.43;;;21.00;;
39300;SDS011;25019;42.626;23.380;2023-02-28T01:08:49;39.70;;;21.80;;
39300;SDS011;25019;42.626;23.380;2023-02-28T01:11:16;36.73;;;21.83;;
39300;SDS011;25019;42.626;23.380;2023-02-28T01:13:44;40.10;;;22.07;;
39300;SDS011;25019;42.626;23.380;2023-02-28T01:16:11;38.50;;;21.87;;
39300;SDS011;25019;42.626;23.380;2023-02-28T01:18:38;38.73;;;21.93;;
39300;SDS011;25019;42.626;23.380;2023-02-28T01:21:05;40.47;;;20.53;;
39300;SDS011;25019;42.626;23.380;2023-02-28T01:23:32;36.20;;;19.47;;
39300;SDS011;25019;42.626;23.380;2023-02-28T01:26:06;36.63;;;19.63;;
39300;SDS011;25019;42.626;23.380;2023-02-28T01:28:38;36.80;;;21.23;;
39300;SDS011;25019;42.626;23.380;2023-02-28T01:31:04;39.67;;;21.47;;
39300;SDS011;25019;42.626;23.380;2023-02-28T01:33:30;35.60;;;20.20;;
39300;SDS011;25019;42.626;23.380;2023-02-28T01:35:59;38.77;;;21.40;;
39300;SDS011;25019;42.626;23.380;2023-02-28T01:38:25;40.53;;;22.20;;
39300;SDS011;25019;42.626;23.380;2023-02-28T01:40:53;37.67;;;20.80;;
39300;SDS011;25019;42.626;23.380;2023-02-28T01:43:20;36.17;;;20.97;;
39300;SDS011;25019;42.626;23.380;2023-02-28T01:45:54;36.00;;;19.97;;
39300;SDS011;25019;42.626;23.380;2023-02-28T01:48:23;37.20;;;19.90;;
39300;SDS011;25019;42.626;23.380;2023-02-28T01:50:52;38.50;;;21.70;;
39300;SDS011;25019;42.626;23.380;2023-02-28T01:53:23;34.57;;;20.37;;
39300;SDS011;25019;42.626;23.380;2023-02-28T01:55:55;37.57;;;21.17;;
39300;SDS011;25019;42.626;23.380;2023-02-28T01:58:22;35.33;;;20.17;;
39300;SDS011;25019;42.626;23.380;2023-02-28T02:00:48;37.07;;;21.00;;
39300;SDS011;25019;42.626;23.380;2023-02-28T02:03:14;36.33;;;19.30;;
39300;SDS011;25019;42.626;23.380;2023-02-28T02:05:47;40.73;;;20.50;;
39300;SDS011;25019;42.626;23.380;2023-02-28T02:08:17;38.30;;;20.40;;
39300;SDS011;25019;42.626;23.380;2023-02-28T02:10:56;36.20;;;20.47;;
39300;SDS011;25019;42.626;23.380;2023-02-28T02:38:41;40.23;;;22.37;;
39300;SDS011;25019;42.626;23.380;2023-02-28T02:41:16;43.97;;;22.03;;
39300;SDS011;25019;42.626;23.380;2023-02-28T02:43:49;40.50;;;21.73;;
39300;SDS011;25019;42.626;23.380;2023-02-28T02:46:29;44.33;;;21.63;;
39300;SDS011;25019;42.626;23.380;2023-02-28T02:48:58;42.87;;;21.07;;
39300;SDS011;25019;42.626;23.380;2023-02-28T02:51:28;45.20;;;22.40;;
39300;SDS011;25019;42.626;23.380;2023-02-28T02:56:54;42.57;;;21.97;;
39300;SDS011;25019;42.626;23.380;2023-02-28T02:59:23;39.87;;;21.30;;
39300;SDS011;25019;42.626;23.380;2023-02-28T03:01:54;44.23;;;21.87;;
39300;SDS011;25019;42.626;23.380;2023-02-28T03:04:24;43.37;;;21.47;;
39300;SDS011;25019;42.626;23.380;2023-02-28T03:06:53;42.67;;;21.00;;
39300;SDS011;25019;42.626;23.380;2023-02-28T03:09:22;46.10;;;22.23;;
39300;SDS011;25019;42.626;23.380;2023-02-28T03:11:49;43.50;;;22.43;;
39300;SDS011;25019;42.626;23.380;2023-02-28T03:25:22;81.20;;;24.83;;
39300;SDS011;25019;42.626;23.380;2023-02-28T03:30:29;55.03;;;24.67;;
39300;SDS011;25019;42.626;23.380;2023-02-28T03:33:08;146.33;;;30.07;;
39300;SDS011;25019;42.626;23.380;2023-02-28T03:35:47;72.13;;;26.40;;
39300;SDS011;25019;42.626;23.380;2023-02-28T03:38:22;86.17;;;28.00;;
39300;SDS011;25019;42.626;23.380;2023-02-28T03:40:50;56.77;;;25.80;;
39300;SDS011;25019;42.626;23.380;2023-02-28T03:43:21;56.73;;;24.50;;
39300;SDS011;25019;42.626;23.380;2023-02-28T03:45:52;61.63;;;26.13;;
39300;SDS011;25019;42.626;23.380;2023-02-28T03:51:05;55.47;;;25.60;;
39300;SDS011;25019;42.626;23.380;2023-02-28T03:53:35;68.53;;;27.10;;
39300;SDS011;25019;42.626;23.380;2023-02-28T03:59:08;56.97;;;26.43;;
39300;SDS011;25019;42.626;23.380;2023-02-28T04:01:41;69.43;;;26.87;;
39300;SDS011;25019;42.626;23.380;2023-02-28T04:04:09;66.97;;;24.27;;
39300;SDS011;25019;42.626;23.380;2023-02-28T04:06:35;62.47;;;26.93;;
39300;SDS011;25019;42.626;23.380;2023-02-28T04:09:02;70.47;;;25.03;;
39300;SDS011;25019;42.626;23.380;2023-02-28T04:11:35;79.17;;;22.97;;
39300;SDS011;25019;42.626;23.380;2023-02-28T04:14:03;73.30;;;25.23;;
39300;SDS011;25019;42.626;23.380;2023-02-28T04:16:30;95.60;;;27.87;;
39300;SDS011;25019;42.626;23.380;2023-02-28T04:18:57;94.40;;;26.00;;
39300;SDS011;25019;42.626;23.380;2023-02-28T04:21:28;76.27;;;22.93;;
39300;SDS011;25019;42.626;23.380;2023-02-28T04:23:54;97.43;;;22.03;;
39300;SDS011;25019;42.626;23.380;2023-02-28T04:26:20;128.17;;;31.90;;
39300;SDS011;25019;42.626;23.380;2023-02-28T04:28:46;91.40;;;26.20;;
39300;SDS011;25019;42.626;23.380;2023-02-28T04:31:11;91.17;;;24.77;;
39300;SDS011;25019;42.626;23.380;2023-02-28T04:33:37;150.70;;;26.23;;
39300;SDS011;25019;42.626;23.380;2023-02-28T04:36:04;116.43;;;28.73;;
39300;SDS011;25019;42.626;23.380;2023-02-28T04:38:33;76.50;;;26.40;;
39300;SDS011;25019;42.626;23.380;2023-02-28T04:41:02;112.20;;;25.33;;
39300;SDS011;25019;42.626;23.380;2023-02-28T04:43:29;101.70;;;24.33;;
39300;SDS011;25019;42.626;23.380;2023-02-28T04:45:56;132.37;;;27.33;;
39300;SDS011;25019;42.626;23.380;2023-02-28T04:48:23;157.83;;;25.10;;
39300;SDS011;25019;42.626;23.380;2023-02-28T04:50:49;116.63;;;22.83;;
39300;SDS011;25019;42.626;23.380;2023-02-28T04:53:15;102.47;;;23.13;;
39300;SDS011;25019;42.626;23.380;2023-02-28T04:55:41;123.50;;;24.80;;
39300;SDS011;25019;42.626;23.380;2023-02-28T04:58:07;315.23;;;35.80;;
39300;SDS011;25019;42.626;23.380;2023-02-28T05:00:33;188.10;;;32.87;;
39300;SDS011;25019;42.626;23.380;2023-02-28T05:02:58;205.37;;;28.87;;
39300;SDS011;25019;42.626;23.380;2023-02-28T05:05:24;120.80;;;24.43;;
39300;SDS011;25019;42.626;23.380;2023-02-28T05:07:49;142.83;;;27.07;;
39300;SDS011;25019;42.626;23.380;2023-02-28T05:10:15;124.90;;;23.50;;
39300;SDS011;25019;42.626;23.380;2023-02-28T05:12:40;108.17;;;24.80;;
39300;SDS011;25019;42.626;23.380;2023-02-28T05:15:07;106.93;;;25.60;;
39300;SDS011;25019;42.626;23.380;2023-02-28T05:17:37;96.53;;;26.40;;
39300;SDS011;25019;42.626;23.380;2023-02-28T05:20:03;93.83;;;27.77;;
39300;SDS011;25019;42.626;23.380;2023-02-28T05:22:30;79.60;;;27.97;;
39300;SDS011;25019;42.626;23.380;2023-02-28T05:24:55;96.33;;;25.63;;
39300;SDS011;25019;42.626;23.380;2023-02-28T05:27:21;85.10;;;28.40;;
39300;SDS011;25019;42.626;23.380;2023-02-28T05:29:46;139.80;;;26.37;;
39300;SDS011;25019;42.626;23.380;2023-02-28T05:32:12;55.03;;;26.40;;
39300;SDS011;25019;42.626;23.380;2023-02-28T05:34:38;97.73;;;28.93;;
39300;SDS011;25019;42.626;23.380;2023-02-28T05:37:05;61.33;;;25.87;;
39300;SDS011;25019;42.626;23.380;2023-02-28T05:39:32;54.20;;;26.33;;
39300;SDS011;25019;42.626;23.380;2023-02-28T05:41:57;57.80;;;26.07;;
39300;SDS011;25019;42.626;23.380;2023-02-28T05:44:23;52.77;;;25.43;;
39300;SDS011;25019;42.626;23.380;2023-02-28T05:46:49;53.63;;;25.90;;
39300;SDS011;25019;42.626;23.380;2023-02-28T05:49:15;49.20;;;24.07;;
39300;SDS011;25019;42.626;23.380;2023-02-28T05:51:40;51.37;;;25.50;;
39300;SDS011;25019;42.626;23.380;2023-02-28T05:54:06;51.17;;;25.10;;
39300;SDS011;25019;42.626;23.380;2023-02-28T05:56:32;49.00;;;25.43;;
39300;SDS011;25019;42.626;23.380;2023-02-28T05:59:00;52.73;;;25.43;;
39300;SDS011;25019;42.626;23.380;2023-02-28T06:01:39;52.57;;;24.97;;
39300;SDS011;25019;42.626;23.380;2023-02-28T06:04:13;57.67;;;25.87;;
39300;SDS011;25019;42.626;23.380;2023-02-28T06:06:49;48.77;;;24.47;;
39300;SDS011;25019;42.626;23.380;2023-02-28T06:09:15;54.20;;;25.87;;
39300;SDS011;25019;42.626;23.380;2023-02-28T06:11:42;62.80;;;28.20;;
39300;SDS011;25019;42.626;23.380;2023-02-28T06:14:09;60.13;;;26.70;;
39300;SDS011;25019;42.626;23.380;2023-02-28T06:16:40;49.77;;;24.77;;
39300;SDS011;25019;42.626;23.380;2023-02-28T06:19:06;50.23;;;25.13;;
39300;SDS011;25019;42.626;23.380;2023-02-28T06:21:32;46.80;;;25.07;;
39300;SDS011;25019;42.626;23.380;2023-02-28T06:23:58;40.97;;;21.73;;
39300;SDS011;25019;42.626;23.380;2023-02-28T06:26:25;39.27;;;20.47;;
39300;SDS011;25019;42.626;23.380;2023-02-28T06:28:51;41.77;;;21.20;;
39300;SDS011;25019;42.626;23.380;2023-02-28T06:31:17;41.00;;;20.67;;
39300;SDS011;25019;42.626;23.380;2023-02-28T06:33:44;40.67;;;21.70;;
39300;SDS011;25019;42.626;23.380;2023-02-28T06:36:11;42.67;;;22.57;;
39300;SDS011;25019;42.626;23.380;2023-02-28T06:38:38;48.67;;;25.57;;
39300;SDS011;25019;42.626;23.380;2023-02-28T06:41:05;47.47;;;25.57;;
39300;SDS011;25019;42.626;23.380;2023-02-28T06:43:33;49.30;;;26.77;;
39300;SDS011;25019;42.626;23.380;2023-02-28T06:46:00;44.93;;;25.27;;
39300;SDS011;25019;42.626;23.380;2023-02-28T06:48:28;44.93;;;23.63;;
39300;SDS011;25019;42.626;23.380;2023-02-28T06:51:07;41.73;;;24.33;;
39300;SDS011;25019;42.626;23.380;2023-02-28T06:53:35;38.90;;;23.03;;
39300;SDS011;25019;42.626;23.380;2023-02-28T06:56:04;42.33;;;23.50;;
39300;SDS011;25019;42.626;23.380;2023-02-28T06:58:31;41.30;;;24.03;;
39300;SDS011;25019;42.626;23.380;2023-02-28T07:00:57;42.73;;;23.00;;
39300;SDS011;25019;42.626;23.380;2023-02-28T07:03:23;42.97;;;24.23;;
39300;SDS011;25019;42.626;23.380;2023-02-28T07:05:49;38.33;;;21.50;;
39300;SDS011;25019;42.626;23.380;2023-02-28T07:08:14;41.77;;;20.63;;
39300;SDS011;25019;42.626;23.380;2023-02-28T07:10:40;35.33;;;20.83;;
39300;SDS011;25019;42.626;23.380;2023-02-28T07:13:07;32.87;;;18.10;;
39300;SDS011;25019;42.626;23.380;2023-02-28T07:15:34;36.40;;;19.73;;
39300;SDS011;25019;42.626;23.380;2023-02-28T07:18:01;32.53;;;19.03;;
39300;SDS011;25019;42.626;23.380;2023-02-28T07:20:26;30.13;;;19.43;;
39300;SDS011;25019;42.626;23.380;2023-02-28T07:22:52;35.10;;;18.43;;
39300;SDS011;25019;42.626;23.380;2023-02-28T07:25:24;29.77;;;18.20;;
39300;SDS011;25019;42.626;23.380;2023-02-28T07:27:51;37.63;;;20.63;;
39300;SDS011;25019;42.626;23.380;2023-02-28T07:30:18;29.33;;;19.00;;
39300;SDS011;25019;42.626;23.380;2023-02-28T07:32:44;33.03;;;20.40;;
39300;SDS011;25019;42.626;23.380;2023-02-28T07:35:09;35.97;;;21.53;;
39300;SDS011;25019;42.626;23.380;2023-02-28T07:37:35;33.83;;;20.73;;
39300;SDS011;25019;42.626;23.380;2023-02-28T07:40:05;38.57;;;21.93;;
39300;SDS011;25019;42.626;23.380;2023-02-28T07:42:35;33.07;;;21.50;;
39300;SDS011;25019;42.626;23.380;2023-02-28T07:45:03;33.40;;;21.67;;
39300;SDS011;25019;42.626;23.380;2023-02-28T07:47:29;38.47;;;23.03;;
39300;SDS011;25019;42.626;23.380;2023-02-28T07:49:55;34.43;;;21.87;;
39300;SDS011;25019;42.626;23.380;2023-02-28T07:52:21;35.10;;;21.00;;
39300;SDS011;25019;42.626;23.380;2023-02-28T07:54:49;30.10;;;18.43;;
39300;SDS011;25019;42.626;23.380;2023-02-28T07:57:14;32.87;;;19.87;;
39300;SDS011;25019;42.626;23.380;2023-02-28T07:59:41;32.87;;;19.83;;
39300;SDS011;25019;42.626;23.380;2023-02-28T08:02:06;29.40;;;18.57;;
39300;SDS011;25019;42.626;23.380;2023-02-28T08:04:32;34.07;;;18.03;;
39300;SDS011;25019;42.626;23.380;2023-02-28T08:06:58;31.50;;;19.87;;
39300;SDS011;25019;42.626;23.380;2023-02-28T08:09:23;33.60;;;20.33;;
39300;SDS011;25019;42.626;23.380;2023-02-28T08:11:49;31.23;;;20.67;;
39300;SDS011;25019;42.626;23.380;2023-02-28T08:14:15;30.70;;;18.87;;
39300;SDS011;25019;42.626;23.380;2023-02-28T08:16:41;35.07;;;20.27;;
39300;SDS011;25019;42.626;23.380;2023-02-28T08:19:08;29.73;;;17.13;;
39300;SDS011;25019;42.626;23.380;2023-02-28T08:21:34;32.40;;;19.73;;
39300;SDS011;25019;42.626;23.380;2023-02-28T08:24:00;30.33;;;20.57;;
39300;SDS011;25019;42.626;23.380;2023-02-28T08:26:26;29.80;;;17.63;;
39300;SDS011;25019;42.626;23.380;2023-02-28T08:28:52;34.07;;;19.07;;
39300;SDS011;25019;42.626;23.380;2023-02-28T08:31:18;32.70;;;17.33;;
39300;SDS011;25019;42.626;23.380;2023-02-28T08:33:44;32.20;;;19.17;;
39300;SDS011;25019;42.626;23.380;2023-02-28T08:36:10;31.43;;;18.30;;
39300;SDS011;25019;42.626;23.380;2023-02-28T08:38:37;31.87;;;18.10;;
39300;SDS011;25019;42.626;23.380;2023-02-28T08:41:04;29.93;;;17.23;;
39300;SDS011;25019;42.626;23.380;2023-02-28T08:43:32;28.67;;;15.53;;
39300;SDS011;25019;42.626;23.380;2023-02-28T08:45:59;30.67;;;16.23;;
39300;SDS011;25019;42.626;23.380;2023-02-28T08:48:25;29.00;;;16.60;;
39300;SDS011;25019;42.626;23.380;2023-02-28T08:50:58;25.87;;;14.60;;
39300;SDS011;25019;42.626;23.380;2023-02-28T08:53:27;23.80;;;13.97;;
39300;SDS011;25019;42.626;23.380;2023-02-28T08:55:57;21.73;;;12.97;;
39300;SDS011;25019;42.626;23.380;2023-02-28T08:58:30;19.83;;;10.53;;
39300;SDS011;25019;42.626;23.380;2023-02-28T09:00:56;17.10;;;8.93;;
39300;SDS011;25019;42.626;23.380;2023-02-28T09:03:22;13.50;;;8.13;;
39300;SDS011;25019;42.626;23.380;2023-02-28T09:05:52;20.40;;;9.47;;
39300;SDS011;25019;42.626;23.380;2023-02-28T09:08:25;19.73;;;9.13;;
39300;SDS011;25019;42.626;23.380;2023-02-28T09:10:52;15.27;;;8.43;;
39300;SDS011;25019;42.626;23.380;2023-02-28T09:13:19;20.77;;;8.83;;
39300;SDS011;25019;42.626;23.380;2023-02-28T09:15:45;17.73;;;9.30;;
39300;SDS011;25019;42.626;23.380;2023-02-28T09:18:11;15.50;;;8.97;;
39300;SDS011;25019;42.626;23.380;2023-02-28T09:20:37;20.87;;;8.90;;
39300;SDS011;25019;42.626;23.380;2023-02-28T09:23:04;17.00;;;8.40;;
39300;SDS011;25019;42.626;23.380;2023-02-28T09:25:31;20.23;;;9.67;;
39300;SDS011;25019;42.626;23.380;2023-02-28T09:27:56;21.47;;;9.73;;
39300;SDS011;25019;42.626;23.380;2023-02-28T09:30:22;16.60;;;8.73;;
39300;SDS011;25019;42.626;23.380;2023-02-28T09:32:47;16.10;;;9.37;;
39300;SDS011;25019;42.626;23.380;2023-02-28T09:35:17;20.30;;;8.93;;
39300;SDS011;25019;42.626;23.380;2023-02-28T09:37:44;16.23;;;8.23;;
39300;SDS011;25019;42.626;23.380;2023-02-28T09:40:10;16.67;;;8.90;;
39300;SDS011;25019;42.626;23.380;2023-02-28T09:42:37;21.50;;;8.73;;
39300;SDS011;25019;42.626;23.380;2023-02-28T09:45:11;19.23;;;8.43;;
39300;SDS011;25019;42.626;23.380;2023-02-28T09:47:45;19.03;;;8.20;;
39300;SDS011;25019;42.626;23.380;2023-02-28T09:50:18;16.40;;;8.30;;
39300;SDS011;25019;42.626;23.380;2023-02-28T09:52:55;22.77;;;8.70;;
39300;SDS011;25019;42.626;23.380;2023-02-28T09:55:31;24.53;;;9.40;;
39300;SDS011;25019;42.626;23.380;2023-02-28T09:58:03;20.00;;;8.93;;
39300;SDS011;25019;42.626;23.380;2023-02-28T10:09:06;16.97;;;9.13;;
39300;SDS011;25019;42.626;23.380;2023-02-28T10:11:29;25.23;;;9.00;;
39300;SDS011;25019;42.626;23.380;2023-02-28T10:17:30;18.97;;;9.93;;
39300;SDS011;25019;42.626;23.380;2023-02-28T10:19:41;22.70;;;11.17;;
39300;SDS011;25019;42.626;23.380;2023-02-28T10:22:15;22.77;;;12.63;;
39300;SDS011;25019;42.626;23.380;2023-02-28T10:24:54;18.37;;;8.83;;
39300;SDS011;25019;42.626;23.380;2023-02-28T10:27:25;21.43;;;8.60;;
39300;SDS011;25019;42.626;23.380;2023-02-28T10:29:56;13.87;;;7.97;;
39300;SDS011;25019;42.626;23.380;2023-02-28T10:32:33;16.93;;;8.10;;
39300;SDS011;25019;42.626;23.380;2023-02-28T10:37:45;21.33;;;8.73;;
39300;SDS011;25019;42.626;23.380;2023-02-28T10:45:26;15.77;;;8.33;;
39300;SDS011;25019;42.626;23.380;2023-02-28T10:47:56;15.63;;;8.20;;
39300;SDS011;25019;42.626;23.380;2023-02-28T11:04:02;21.67;;;9.23;;
39300;SDS011;25019;42.626;23.380;2023-02-28T11:06:34;16.00;;;8.40;;
39300;SDS011;25019;42.626;23.380;2023-02-28T11:11:43;16.93;;;9.30;;
39300;SDS011;25019;42.626;23.380;2023-02-28T11:16:49;17.40;;;10.03;;
39300;SDS011;25019;42.626;23.380;2023-02-28T11:19:20;22.63;;;10.90;;
39300;SDS011;25019;42.626;23.380;2023-02-28T11:21:55;18.47;;;10.57;;
39300;SDS011;25019;42.626;23.380;2023-02-28T11:24:30;19.67;;;8.80;;
39300;SDS011;25019;42.626;23.380;2023-02-28T11:27:00;16.90;;;10.17;;
39300;SDS011;25019;42.626;23.380;2023-02-28T11:29:30;19.70;;;10.33;;
39300;SDS011;25019;42.626;23.380;2023-02-28T11:37:35;17.93;;;10.00;;
39300;SDS011;25019;42.626;23.380;2023-02-28T11:40:02;20.53;;;9.30;;
39300;SDS011;25019;42.626;23.380;2023-02-28T11:42:53;20.90;;;10.70;;
39300;SDS011;25019;42.626;23.380;2023-02-28T11:45:38;23.00;;;11.93;;
39300;SDS011;25019;42.626;23.380;2023-02-28T11:48:18;19.47;;;9.53;;
39300;SDS011;25019;42.626;23.380;2023-02-28T12:04:04;16.23;;;9.50;;
39300;SDS011;25019;42.626;23.380;2023-02-28T12:28:08;20.60;;;10.40;;
39300;SDS011;25019;42.626;23.380;2023-02-28T12:30:37;23.13;;;10.70;;
39300;SDS011;25019;42.626;23.380;2023-02-28T12:33:12;15.40;;;10.03;;
39300;SDS011;25019;42.626;23.380;2023-02-28T12:35:48;21.40;;;11.13;;
39300;SDS011;25019;42.626;23.380;2023-02-28T12:41:47;19.07;;;11.23;;
39300;SDS011;25019;42.626;23.380;2023-02-28T12:44:31;21.97;;;12.77;;
39300;SDS011;25019;42.626;23.380;2023-02-28T12:47:16;17.83;;;11.77;;
39300;SDS011;25019;42.626;23.380;2023-02-28T12:49:47;19.77;;;11.40;;
39300;SDS011;25019;42.626;23.380;2023-02-28T12:52:18;20.50;;;10.97;;
39300;SDS011;25019;42.626;23.380;2023-02-28T12:55:35;16.93;;;11.07;;
39300;SDS011;25019;42.626;23.380;2023-02-28T12:57:48;20.77;;;11.07;;
39300;SDS011;25019;42.626;23.380;2023-02-28T13:00:25;21.87;;;10.27;;
39300;SDS011;25019;42.626;23.380;2023-02-28T13:11:31;16.40;;;8.57;;
39300;SDS011;25019;42.626;23.380;2023-02-28T13:14:04;16.70;;;9.73;;
39300;SDS011;25019;42.626;23.380;2023-02-28T13:16:51;20.50;;;11.03;;
39300;SDS011;25019;42.626;23.380;2023-02-28T13:19:22;19.93;;;10.40;;
39300;SDS011;25019;42.626;23.380;2023-02-28T13:21:50;18.97;;;10.17;;
39300;SDS011;25019;42.626;23.380;2023-02-28T13:25:02;15.83;;;10.10;;
39300;SDS011;25019;42.626;23.380;2023-02-28T13:29:30;18.90;;;10.60;;
39300;SDS011;25019;42.626;23.380;2023-02-28T13:39:53;22.07;;;9.43;;
39300;SDS011;25019;42.626;23.380;2023-02-28T13:45:25;16.20;;;9.60;;
39300;SDS011;25019;42.626;23.380;2023-02-28T13:47:59;19.37;;;10.67;;
39300;SDS011;25019;42.626;23.380;2023-02-28T14:06:37;20.07;;;10.33;;
39300;SDS011;25019;42.626;23.380;2023-02-28T14:11:46;19.73;;;11.33;;
39300;SDS011;25019;42.626;23.380;2023-02-28T14:17:00;18.27;;;11.03;;
39300;SDS011;25019;42.626;23.380;2023-02-28T14:19:29;23.60;;;11.20;;
39300;SDS011;25019;42.626;23.380;2023-02-28T14:22:07;20.23;;;11.23;;
39300;SDS011;25019;42.626;23.380;2023-02-28T14:35:28;25.30;;;11.77;;
39300;SDS011;25019;42.626;23.380;2023-02-28T14:38:05;21.97;;;11.23;;
39300;SDS011;25019;42.626;23.380;2023-02-28T14:40:38;19.97;;;11.67;;
39300;SDS011;25019;42.626;23.380;2023-02-28T14:43:06;17.87;;;11.03;;
39300;SDS011;25019;42.626;23.380;2023-02-28T14:45:44;17.47;;;10.60;;
39300;SDS011;25019;42.626;23.380;2023-02-28T14:48:16;17.30;;;11.37;;
39300;SDS011;25019;42.626;23.380;2023-02-28T14:50:48;18.03;;;10.60;;
39300;SDS011;25019;42.626;23.380;2023-02-28T14:53:17;24.00;;;10.23;;
39300;SDS011;25019;42.626;23.380;2023-02-28T14:55:45;21.97;;;11.03;;
39300;SDS011;25019;42.626;23.380;2023-02-28T14:58:50;20.13;;;11.53;;
39300;SDS011;25019;42.626;23.380;2023-02-28T15:01:04;21.73;;;13.63;;
39300;SDS011;25019;42.626;23.380;2023-02-28T15:06:02;22.27;;;11.47;;
39300;SDS011;25019;42.626;23.380;2023-02-28T15:08:30;19.53;;;12.17;;
39300;SDS011;25019;42.626;23.380;2023-02-28T15:11:13;18.90;;;11.27;;
39300;SDS011;25019;42.626;23.380;2023-02-28T15:13:54;20.90;;;10.10;;
39300;SDS011;25019;42.626;23.380;2023-02-28T15:16:36;17.27;;;10.00;;
39300;SDS011;25019;42.626;23.380;2023-02-28T15:19:16;18.20;;;10.27;;
39300;SDS011;25019;42.626;23.380;2023-02-28T15:22:02;17.53;;;9.90;;
39300;SDS011;25019;42.626;23.380;2023-02-28T15:24:35;23.03;;;10.70;;
39300;SDS011;25019;42.626;23.380;2023-02-28T15:27:09;19.27;;;10.20;;
39300;SDS011;25019;42.626;23.380;2023-02-28T15:29:45;18.43;;;9.53;;
39300;SDS011;25019;42.626;23.380;2023-02-28T15:32:33;20.27;;;10.80;;
39300;SDS011;25019;42.626;23.380;2023-02-28T15:38:21;16.83;;;9.73;;
39300;SDS011;25019;42.626;23.380;2023-02-28T15:40:52;16.63;;;9.27;;
39300;SDS011;25019;42.626;23.380;2023-02-28T15:43:26;15.07;;;8.67;;
39300;SDS011;25019;42.626;23.380;2023-02-28T15:46:06;18.10;;;9.53;;
39300;SDS011;25019;42.626;23.380;2023-02-28T15:51:09;14.87;;;8.30;;
39300;SDS011;25019;42.626;23.380;2023-02-28T15:53:54;11.00;;;6.57;;
39300;SDS011;25019;42.626;23.380;2023-02-28T15:59:19;10.93;;;6.03;;
39300;SDS011;25019;42.626;23.380;2023-02-28T16:02:01;9.53;;;6.73;;
39300;SDS011;25019;42.626;23.380;2023-02-28T16:04:54;10.43;;;7.27;;
39300;SDS011;25019;42.626;23.380;2023-02-28T16:07:24;9.37;;;6.10;;
39300;SDS011;25019;42.626;23.380;2023-02-28T16:09:51;11.10;;;6.87;;
39300;SDS011;25019;42.626;23.380;2023-02-28T16:12:17;10.07;;;6.43;;
39300;SDS011;25019;42.626;23.380;2023-02-28T16:14:42;10.90;;;7.43;;
39300;SDS011;25019;42.626;23.380;2023-02-28T16:17:20;11.27;;;7.53;;
39300;SDS011;25019;42.626;23.380;2023-02-28T16:19:48;11.20;;;7.50;;
39300;SDS011;25019;42.626;23.380;2023-02-28T16:22:14;11.40;;;6.03;;
39300;SDS011;25019;42.626;23.380;2023-02-28T16:24:40;8.93;;;5.93;;
39300;SDS011;25019;42.626;23.380;2023-02-28T16:27:06;11.53;;;6.67;;
39300;SDS011;25019;42.626;23.380;2023-02-28T16:29:42;9.27;;;6.27;;
39300;SDS011;25019;42.626;23.380;2023-02-28T16:32:07;11.23;;;7.30;;
39300;SDS011;25019;42.626;23.380;2023-02-28T16:34:35;10.63;;;6.53;;
39300;SDS011;25019;42.626;23.380;2023-02-28T16:37:01;11.93;;;6.50;;
39300;SDS011;25019;42.626;23.380;2023-02-28T16:39:26;9.17;;;5.60;;
39300;SDS011;25019;42.626;23.380;2023-02-28T16:41:52;14.60;;;7.87;;
39300;SDS011;25019;42.626;23.380;2023-02-28T16:44:26;11.33;;;7.43;;
39300;SDS011;25019;42.626;23.380;2023-02-28T16:46:54;9.80;;;6.93;;
39300;SDS011;25019;42.626;23.380;2023-02-28T16:49:20;9.23;;;7.00;;
39300;SDS011;25019;42.626;23.380;2023-02-28T16:51:46;9.70;;;7.50;;
39300;SDS011;25019;42.626;23.380;2023-02-28T16:54:11;9.67;;;6.83;;
39300;SDS011;25019;42.626;23.380;2023-02-28T16:56:38;9.30;;;6.63;;
39300;SDS011;25019;42.626;23.380;2023-02-28T16:59:07;8.97;;;6.53;;
39300;SDS011;25019;42.626;23.380;2023-02-28T17:01:34;10.90;;;6.60;;
39300;SDS011;25019;42.626;23.380;2023-02-28T17:03:59;13.47;;;6.23;;
39300;SDS011;25019;42.626;23.380;2023-02-28T17:06:26;10.33;;;6.27;;
39300;SDS011;25019;42.626;23.380;2023-02-28T17:08:55;10.00;;;6.07;;
39300;SDS011;25019;42.626;23.380;2023-02-28T17:11:22;9.70;;;5.00;;
39300;SDS011;25019;42.626;23.380;2023-02-28T17:13:47;9.43;;;5.10;;
39300;SDS011;25019;42.626;23.380;2023-02-28T17:16:20;7.40;;;4.90;;
39300;SDS011;25019;42.626;23.380;2023-02-28T17:18:54;10.97;;;5.47;;
39300;SDS011;25019;42.626;23.380;2023-02-28T17:21:22;9.90;;;4.93;;
39300;SDS011;25019;42.626;23.380;2023-02-28T17:23:47;9.90;;;5.33;;
39300;SDS011;25019;42.626;23.380;2023-02-28T17:26:14;7.90;;;5.30;;
39300;SDS011;25019;42.626;23.380;2023-02-28T17:28:43;8.50;;;4.73;;
39300;SDS011;25019;42.626;23.380;2023-02-28T17:31:08;6.67;;;4.07;;
39300;SDS011;25019;42.626;23.380;2023-02-28T17:33:34;6.80;;;4.30;;
39300;SDS011;25019;42.626;23.380;2023-02-28T17:36:00;10.63;;;4.30;;
39300;SDS011;25019;42.626;23.380;2023-02-28T17:38:26;7.20;;;4.50;;
39300;SDS011;25019;42.626;23.380;2023-02-28T17:40:52;7.10;;;3.87;;